sensor_id;sensor_type;location;lat;lon;timestamp;temperature;humidity
73643;DHT22;61938;48.652;9.292;2023-05-20T00:00:26;11.10;99.90
73643;DHT22;61938;48.652;9.292;2023-05-20T00:02:52;11.10;99.90
73643;DHT22;61938;48.652;9.292;2023-05-20T00:05:17;11.10;99.90
73643;DHT22;61938;48.652;9.292;2023-05-20T00:07:43;11.10;99.90
73643;DHT22;61938;48.652;9.292;2023-05-20T00:10:08;11.10;99.90
73643;DHT22;61938;48.652;9.292;2023-05-20T00:12:35;11.20;99.90
73643;DHT22;61938;48.652;9.292;2023-05-20T00:15:00;11.20;99.90
73643;DHT22;61938;48.652;9.292;2023-05-20T00:17:26;11.30;99.90
73643;DHT22;61938;48.652;9.292;2023-05-20T00:19:53;11.30;99.90
73643;DHT22;61938;48.652;9.292;2023-05-20T00:22:18;11.30;99.90
73643;DHT22;61938;48.652;9.292;2023-05-20T00:24:44;11.40;99.90
73643;DHT22;61938;48.652;9.292;2023-05-20T00:27:09;11.40;99.90
73643;DHT22;61938;48.652;9.292;2023-05-20T00:29:35;11.40;99.90
73643;DHT22;61938;48.652;9.292;2023-05-20T00:32:00;11.40;99.90
73643;DHT22;61938;48.652;9.292;2023-05-20T00:34:26;11.40;99.90
73643;DHT22;61938;48.652;9.292;2023-05-20T00:36:51;11.40;99.90
73643;DHT22;61938;48.652;9.292;2023-05-20T00:39:17;11.40;99.90
73643;DHT22;61938;48.652;9.292;2023-05-20T00:41:42;11.40;99.90
73643;DHT22;61938;48.652;9.292;2023-05-20T00:44:08;11.40;99.90
73643;DHT22;61938;48.652;9.292;2023-05-20T00:46:34;11.50;99.90
73643;DHT22;61938;48.652;9.292;2023-05-20T00:49:00;11.40;99.90
73643;DHT22;61938;48.652;9.292;2023-05-20T00:51:26;11.40;99.90
73643;DHT22;61938;48.652;9.292;2023-05-20T00:53:52;11.50;99.90
73643;DHT22;61938;48.652;9.292;2023-05-20T00:56:17;11.40;99.90
73643;DHT22;61938;48.652;9.292;2023-05-20T00:58:44;11.40;99.90
73643;DHT22;61938;48.652;9.292;2023-05-20T01:01:09;11.40;99.90
73643;DHT22;61938;48.652;9.292;2023-05-20T01:03:35;11.40;99.90
73643;DHT22;61938;48.652;9.292;2023-05-20T01:06:01;11.40;99.90
73643;DHT22;61938;48.652;9.292;2023-05-20T01:08:27;11.40;99.90
73643;DHT22;61938;48.652;9.292;2023-05-20T01:11:07;11.40;99.90
73643;DHT22;61938;48.652;9.292;2023-05-20T01:13:46;11.40;99.90
73643;DHT22;61938;48.652;9.292;2023-05-20T01:16:14;11.50;99.90
73643;DHT22;61938;48.652;9.292;2023-05-20T01:18:41;11.40;99.90
73643;DHT22;61938;48.652;9.292;2023-05-20T01:21:10;11.40;99.90
73643;DHT22;61938;48.652;9.292;2023-05-20T01:23:40;11.40;99.90
73643;DHT22;61938;48.652;9.292;2023-05-20T01:26:06;11.40;99.90
73643;DHT22;61938;48.652;9.292;2023-05-20T01:28:33;11.40;99.90
73643;DHT22;61938;48.652;9.292;2023-05-20T01:31:02;11.30;99.90
73643;DHT22;61938;48.652;9.292;2023-05-20T01:33:30;11.30;99.90
73643;DHT22;61938;48.652;9.292;2023-05-20T01:35:56;11.20;99.90
73643;DHT22;61938;48.652;9.292;2023-05-20T01:38:23;11.20;99.90
73643;DHT22;61938;48.652;9.292;2023-05-20T01:40:50;11.10;99.90
73643;DHT22;61938;48.652;9.292;2023-05-20T01:43:16;11.00;99.90
73643;DHT22;61938;48.652;9.292;2023-05-20T01:45:43;11.00;99.90
73643;DHT22;61938;48.652;9.292;2023-05-20T01:48:10;10.90;99.90
73643;DHT22;61938;48.652;9.292;2023-05-20T01:50:36;10.90;99.90
73643;DHT22;61938;48.652;9.292;2023-05-20T01:53:02;10.90;99.90
73643;DHT22;61938;48.652;9.292;2023-05-20T01:55:27;10.90;99.90
73643;DHT22;61938;48.652;9.292;2023-05-20T01:57:53;10.80;99.90
73643;DHT22;61938;48.652;9.292;2023-05-20T02:00:18;10.80;99.90
73643;DHT22;61938;48.652;9.292;2023-05-20T02:02:44;10.70;99.90
73643;DHT22;61938;48.652;9.292;2023-05-20T02:05:09;10.60;99.90
73643;DHT22;61938;48.652;9.292;2023-05-20T02:07:35;10.60;99.90
73643;DHT22;61938;48.652;9.292;2023-05-20T02:10:01;10.60;99.90
73643;DHT22;61938;48.652;9.292;2023-05-20T02:12:26;10.60;99.90
73643;DHT22;61938;48.652;9.292;2023-05-20T02:14:52;10.50;99.90
73643;DHT22;61938;48.652;9.292;2023-05-20T02:17:17;10.60;99.90
73643;DHT22;61938;48.652;9.292;2023-05-20T02:19:43;10.50;99.90
73643;DHT22;61938;48.652;9.292;2023-05-20T02:22:09;10.50;99.90
73643;DHT22;61938;48.652;9.292;2023-05-20T02:24:35;10.50;99.90
73643;DHT22;61938;48.652;9.292;2023-05-20T02:27:00;10.50;99.90
73643;DHT22;61938;48.652;9.292;2023-05-20T02:29:27;10.50;99.90
73643;DHT22;61938;48.652;9.292;2023-05-20T02:31:53;10.40;99.90
73643;DHT22;61938;48.652;9.292;2023-05-20T02:34:19;10.40;99.90
73643;DHT22;61938;48.652;9.292;2023-05-20T02:36:45;10.40;99.90
73643;DHT22;61938;48.652;9.292;2023-05-20T02:39:11;10.40;99.90
73643;DHT22;61938;48.652;9.292;2023-05-20T02:41:37;10.40;99.90
73643;DHT22;61938;48.652;9.292;2023-05-20T02:44:02;10.40;99.90
73643;DHT22;61938;48.652;9.292;2023-05-20T02:46:28;10.30;99.90
73643;DHT22;61938;48.652;9.292;2023-05-20T02:48:53;10.30;99.90
73643;DHT22;61938;48.652;9.292;2023-05-20T02:51:19;10.30;99.90
73643;DHT22;61938;48.652;9.292;2023-05-20T02:53:45;10.30;99.90
73643;DHT22;61938;48.652;9.292;2023-05-20T02:56:10;10.20;99.90
73643;DHT22;61938;48.652;9.292;2023-05-20T02:58:37;10.20;99.90
73643;DHT22;61938;48.652;9.292;2023-05-20T03:01:03;10.10;99.90
73643;DHT22;61938;48.652;9.292;2023-05-20T03:03:29;10.10;99.90
73643;DHT22;61938;48.652;9.292;2023-05-20T03:05:54;10.00;99.90
73643;DHT22;61938;48.652;9.292;2023-05-20T03:08:21;10.00;99.90
73643;DHT22;61938;48.652;9.292;2023-05-20T03:10:47;10.00;99.90
73643;DHT22;61938;48.652;9.292;2023-05-20T03:13:12;10.00;99.90
73643;DHT22;61938;48.652;9.292;2023-05-20T03:15:40;9.90;99.90
73643;DHT22;61938;48.652;9.292;2023-05-20T03:18:06;9.90;99.90
73643;DHT22;61938;48.652;9.292;2023-05-20T03:20:35;9.90;99.90
73643;DHT22;61938;48.652;9.292;2023-05-20T03:23:04;9.90;99.90
73643;DHT22;61938;48.652;9.292;2023-05-20T03:25:30;9.80;99.90
73643;DHT22;61938;48.652;9.292;2023-05-20T03:27:56;9.80;99.90
73643;DHT22;61938;48.652;9.292;2023-05-20T03:30:25;9.80;99.90
73643;DHT22;61938;48.652;9.292;2023-05-20T03:32:51;9.80;99.90
73643;DHT22;61938;48.652;9.292;2023-05-20T03:35:17;9.80;99.90
73643;DHT22;61938;48.652;9.292;2023-05-20T03:37:42;9.80;99.90
73643;DHT22;61938;48.652;9.292;2023-05-20T03:40:08;9.90;99.90
73643;DHT22;61938;48.652;9.292;2023-05-20T03:42:37;9.90;99.90
73643;DHT22;61938;48.652;9.292;2023-05-20T03:45:03;9.90;99.90
73643;DHT22;61938;48.652;9.292;2023-05-20T03:47:29;10.00;99.90
73643;DHT22;61938;48.652;9.292;2023-05-20T03:49:54;10.10;99.90
73643;DHT22;61938;48.652;9.292;2023-05-20T03:52:20;10.10;99.90
73643;DHT22;61938;48.652;9.292;2023-05-20T03:54:46;10.20;99.90
73643;DHT22;61938;48.652;9.292;2023-05-20T03:57:11;10.20;99.90
73643;DHT22;61938;48.652;9.292;2023-05-20T03:59:37;10.20;99.90
73643;DHT22;61938;48.652;9.292;2023-05-20T04:02:04;10.30;99.90
73643;DHT22;61938;48.652;9.292;2023-05-20T04:04:30;10.40;99.90
73643;DHT22;61938;48.652;9.292;2023-05-20T04:06:55;10.40;99.90
73643;DHT22;61938;48.652;9.292;2023-05-20T04:09:21;10.50;99.90
73643;DHT22;61938;48.652;9.292;2023-05-20T04:11:47;10.50;99.90
73643;DHT22;61938;48.652;9.292;2023-05-20T04:14:13;10.60;99.90
73643;DHT22;61938;48.652;9.292;2023-05-20T04:16:39;10.70;99.90
73643;DHT22;61938;48.652;9.292;2023-05-20T04:19:05;10.80;99.90
73643;DHT22;61938;48.652;9.292;2023-05-20T04:21:31;10.80;99.90
73643;DHT22;61938;48.652;9.292;2023-05-20T04:23:57;10.90;99.90
73643;DHT22;61938;48.652;9.292;2023-05-20T04:26:22;10.90;99.90
73643;DHT22;61938;48.652;9.292;2023-05-20T04:28:48;10.90;99.90
73643;DHT22;61938;48.652;9.292;2023-05-20T04:31:14;11.00;99.90
73643;DHT22;61938;48.652;9.292;2023-05-20T04:33:39;11.00;99.90
73643;DHT22;61938;48.652;9.292;2023-05-20T04:36:10;11.10;99.90
73643;DHT22;61938;48.652;9.292;2023-05-20T04:38:37;11.10;99.90
73643;DHT22;61938;48.652;9.292;2023-05-20T04:41:02;11.20;99.90
73643;DHT22;61938;48.652;9.292;2023-05-20T04:43:28;11.20;99.90
73643;DHT22;61938;48.652;9.292;2023-05-20T04:45:55;11.30;99.90
73643;DHT22;61938;48.652;9.292;2023-05-20T04:48:20;11.30;99.90
73643;DHT22;61938;48.652;9.292;2023-05-20T04:50:47;11.40;99.90
73643;DHT22;61938;48.652;9.292;2023-05-20T04:53:14;11.40;99.90
73643;DHT22;61938;48.652;9.292;2023-05-20T04:55:40;11.50;99.90
73643;DHT22;61938;48.652;9.292;2023-05-20T04:58:05;11.50;99.90
73643;DHT22;61938;48.652;9.292;2023-05-20T05:00:32;11.50;99.90
73643;DHT22;61938;48.652;9.292;2023-05-20T05:02:58;11.60;99.90
73643;DHT22;61938;48.652;9.292;2023-05-20T05:05:24;11.60;99.90
73643;DHT22;61938;48.652;9.292;2023-05-20T05:07:49;11.70;99.90
73643;DHT22;61938;48.652;9.292;2023-05-20T05:10:15;11.70;99.90
73643;DHT22;61938;48.652;9.292;2023-05-20T05:12:40;11.80;99.90
73643;DHT22;61938;48.652;9.292;2023-05-20T05:15:06;11.80;99.90
73643;DHT22;61938;48.652;9.292;2023-05-20T05:17:32;11.90;99.90
73643;DHT22;61938;48.652;9.292;2023-05-20T05:19:57;11.90;99.90
73643;DHT22;61938;48.652;9.292;2023-05-20T05:22:23;12.00;99.90
73643;DHT22;61938;48.652;9.292;2023-05-20T05:24:48;12.00;99.90
73643;DHT22;61938;48.652;9.292;2023-05-20T05:27:14;12.10;99.90
73643;DHT22;61938;48.652;9.292;2023-05-20T05:29:39;12.10;99.90
73643;DHT22;61938;48.652;9.292;2023-05-20T05:32:05;12.20;99.90
73643;DHT22;61938;48.652;9.292;2023-05-20T05:34:30;12.20;99.90
73643;DHT22;61938;48.652;9.292;2023-05-20T05:36:56;12.20;99.90
73643;DHT22;61938;48.652;9.292;2023-05-20T05:39:21;12.30;99.90
73643;DHT22;61938;48.652;9.292;2023-05-20T05:41:47;12.40;99.90
73643;DHT22;61938;48.652;9.292;2023-05-20T05:44:12;12.50;99.90
73643;DHT22;61938;48.652;9.292;2023-05-20T05:46:39;12.50;99.90
73643;DHT22;61938;48.652;9.292;2023-05-20T05:49:04;12.60;99.90
73643;DHT22;61938;48.652;9.292;2023-05-20T05:51:30;12.70;99.90
73643;DHT22;61938;48.652;9.292;2023-05-20T05:53:55;12.80;99.90
73643;DHT22;61938;48.652;9.292;2023-05-20T05:56:21;12.90;99.90
73643;DHT22;61938;48.652;9.292;2023-05-20T05:58:46;12.90;99.90
73643;DHT22;61938;48.652;9.292;2023-05-20T06:01:12;12.90;99.90
73643;DHT22;61938;48.652;9.292;2023-05-20T06:03:38;13.00;99.90
73643;DHT22;61938;48.652;9.292;2023-05-20T06:06:03;13.10;99.90
73643;DHT22;61938;48.652;9.292;2023-05-20T06:08:29;13.10;99.90
73643;DHT22;61938;48.652;9.292;2023-05-20T06:10:54;13.20;99.90
73643;DHT22;61938;48.652;9.292;2023-05-20T06:13:20;13.30;99.90
73643;DHT22;61938;48.652;9.292;2023-05-20T06:15:48;13.30;99.90
73643;DHT22;61938;48.652;9.292;2023-05-20T06:18:13;13.40;99.90
73643;DHT22;61938;48.652;9.292;2023-05-20T06:20:39;13.50;99.90
73643;DHT22;61938;48.652;9.292;2023-05-20T06:23:05;13.60;99.90
73643;DHT22;61938;48.652;9.292;2023-05-20T06:25:30;13.60;99.90
73643;DHT22;61938;48.652;9.292;2023-05-20T06:27:56;13.70;99.90
73643;DHT22;61938;48.652;9.292;2023-05-20T06:30:21;13.70;99.90
73643;DHT22;61938;48.652;9.292;2023-05-20T06:32:47;13.70;99.90
73643;DHT22;61938;48.652;9.292;2023-05-20T06:35:12;13.80;99.90
73643;DHT22;61938;48.652;9.292;2023-05-20T06:37:38;13.90;99.90
73643;DHT22;61938;48.652;9.292;2023-05-20T06:40:04;14.00;99.90
73643;DHT22;61938;48.652;9.292;2023-05-20T06:42:32;14.10;99.90
73643;DHT22;61938;48.652;9.292;2023-05-20T06:44:57;14.20;99.90
73643;DHT22;61938;48.652;9.292;2023-05-20T06:47:23;14.30;99.90
73643;DHT22;61938;48.652;9.292;2023-05-20T06:49:48;14.40;99.90
73643;DHT22;61938;48.652;9.292;2023-05-20T06:52:14;14.60;99.90
73643;DHT22;61938;48.652;9.292;2023-05-20T06:54:39;14.90;99.90
73643;DHT22;61938;48.652;9.292;2023-05-20T06:57:09;15.30;99.90
73643;DHT22;61938;48.652;9.292;2023-05-20T06:59:35;15.70;99.90
73643;DHT22;61938;48.652;9.292;2023-05-20T07:02:02;15.90;99.90
73643;DHT22;61938;48.652;9.292;2023-05-20T07:04:27;15.80;99.90
73643;DHT22;61938;48.652;9.292;2023-05-20T07:06:53;15.80;99.90
73643;DHT22;61938;48.652;9.292;2023-05-20T07:09:19;15.80;99.90
73643;DHT22;61938;48.652;9.292;2023-05-20T07:11:44;15.80;99.90
73643;DHT22;61938;48.652;9.292;2023-05-20T07:14:10;16.20;99.90
73643;DHT22;61938;48.652;9.292;2023-05-20T07:16:36;16.70;99.90
73643;DHT22;61938;48.652;9.292;2023-05-20T07:19:02;17.10;99.90
73643;DHT22;61938;48.652;9.292;2023-05-20T07:21:27;17.20;99.90
73643;DHT22;61938;48.652;9.292;2023-05-20T07:23:53;17.00;99.90
73643;DHT22;61938;48.652;9.292;2023-05-20T07:26:18;17.10;99.90
73643;DHT22;61938;48.652;9.292;2023-05-20T07:28:44;17.30;99.90
73643;DHT22;61938;48.652;9.292;2023-05-20T07:31:11;17.20;99.90
73643;DHT22;61938;48.652;9.292;2023-05-20T07:33:37;17.30;99.90
73643;DHT22;61938;48.652;9.292;2023-05-20T07:36:03;17.00;99.90
73643;DHT22;61938;48.652;9.292;2023-05-20T07:38:28;16.80;99.90
73643;DHT22;61938;48.652;9.292;2023-05-20T07:40:54;16.70;99.90
73643;DHT22;61938;48.652;9.292;2023-05-20T07:43:19;16.80;99.90
73643;DHT22;61938;48.652;9.292;2023-05-20T07:45:45;16.80;99.90
73643;DHT22;61938;48.652;9.292;2023-05-20T07:48:10;16.80;99.90
73643;DHT22;61938;48.652;9.292;2023-05-20T07:50:37;16.60;99.90
73643;DHT22;61938;48.652;9.292;2023-05-20T07:53:03;16.70;99.90
73643;DHT22;61938;48.652;9.292;2023-05-20T07:55:29;16.70;99.90
73643;DHT22;61938;48.652;9.292;2023-05-20T07:57:55;16.50;99.90
73643;DHT22;61938;48.652;9.292;2023-05-20T08:00:21;16.40;99.90
73643;DHT22;61938;48.652;9.292;2023-05-20T08:02:46;16.30;99.90
73643;DHT22;61938;48.652;9.292;2023-05-20T08:05:12;16.30;99.90
73643;DHT22;61938;48.652;9.292;2023-05-20T08:07:37;16.10;99.90
73643;DHT22;61938;48.652;9.292;2023-05-20T08:10:03;16.20;99.90
73643;DHT22;61938;48.652;9.292;2023-05-20T08:12:29;16.20;99.90
73643;DHT22;61938;48.652;9.292;2023-05-20T08:14:54;16.20;99.90
73643;DHT22;61938;48.652;9.292;2023-05-20T08:17:20;16.10;99.90
73643;DHT22;61938;48.652;9.292;2023-05-20T08:19:45;16.10;99.90
73643;DHT22;61938;48.652;9.292;2023-05-20T08:22:11;16.20;99.90
73643;DHT22;61938;48.652;9.292;2023-05-20T08:24:37;16.40;99.90
73643;DHT22;61938;48.652;9.292;2023-05-20T08:27:02;16.60;99.90
73643;DHT22;61938;48.652;9.292;2023-05-20T08:29:29;16.70;99.90
73643;DHT22;61938;48.652;9.292;2023-05-20T08:31:55;16.90;99.90
73643;DHT22;61938;48.652;9.292;2023-05-20T08:34:21;17.10;99.90
73643;DHT22;61938;48.652;9.292;2023-05-20T08:36:46;17.20;99.90
73643;DHT22;61938;48.652;9.292;2023-05-20T08:39:12;17.60;99.90
73643;DHT22;61938;48.652;9.292;2023-05-20T08:41:38;18.00;99.90
73643;DHT22;61938;48.652;9.292;2023-05-20T08:44:04;18.30;99.90
73643;DHT22;61938;48.652;9.292;2023-05-20T08:46:33;18.40;99.90
73643;DHT22;61938;48.652;9.292;2023-05-20T08:48:58;19.10;99.90
73643;DHT22;61938;48.652;9.292;2023-05-20T08:51:26;19.40;99.90
73643;DHT22;61938;48.652;9.292;2023-05-20T08:53:51;19.20;99.90
73643;DHT22;61938;48.652;9.292;2023-05-20T08:56:18;18.90;99.90
73643;DHT22;61938;48.652;9.292;2023-05-20T08:58:44;18.90;99.90
73643;DHT22;61938;48.652;9.292;2023-05-20T09:01:11;19.20;99.90
73643;DHT22;61938;48.652;9.292;2023-05-20T09:03:36;19.30;99.90
73643;DHT22;61938;48.652;9.292;2023-05-20T09:06:06;19.20;99.90
73643;DHT22;61938;48.652;9.292;2023-05-20T09:08:32;18.70;99.90
73643;DHT22;61938;48.652;9.292;2023-05-20T09:10:59;18.30;99.90
73643;DHT22;61938;48.652;9.292;2023-05-20T09:13:26;18.50;99.90
73643;DHT22;61938;48.652;9.292;2023-05-20T09:15:53;18.40;99.90
73643;DHT22;61938;48.652;9.292;2023-05-20T09:18:18;18.40;99.90
73643;DHT22;61938;48.652;9.292;2023-05-20T09:20:46;18.70;99.90
73643;DHT22;61938;48.652;9.292;2023-05-20T09:23:12;18.90;99.90
73643;DHT22;61938;48.652;9.292;2023-05-20T09:25:38;18.80;99.90
73643;DHT22;61938;48.652;9.292;2023-05-20T09:28:05;19.10;99.90
73643;DHT22;61938;48.652;9.292;2023-05-20T09:30:31;19.50;99.90
73643;DHT22;61938;48.652;9.292;2023-05-20T09:32:58;20.00;99.90
73643;DHT22;61938;48.652;9.292;2023-05-20T09:35:25;20.30;99.90
73643;DHT22;61938;48.652;9.292;2023-05-20T09:37:53;20.50;99.90
73643;DHT22;61938;48.652;9.292;2023-05-20T09:40:23;20.30;99.90
73643;DHT22;61938;48.652;9.292;2023-05-20T09:42:53;20.80;99.90
73643;DHT22;61938;48.652;9.292;2023-05-20T09:45:19;20.80;99.90
73643;DHT22;61938;48.652;9.292;2023-05-20T09:47:47;20.90;99.90
73643;DHT22;61938;48.652;9.292;2023-05-20T09:50:14;21.40;99.90
73643;DHT22;61938;48.652;9.292;2023-05-20T09:52:41;21.70;99.90
73643;DHT22;61938;48.652;9.292;2023-05-20T09:55:08;22.00;99.90
73643;DHT22;61938;48.652;9.292;2023-05-20T09:57:36;22.00;99.90
73643;DHT22;61938;48.652;9.292;2023-05-20T10:00:03;22.00;99.90
73643;DHT22;61938;48.652;9.292;2023-05-20T10:02:33;22.00;99.90
73643;DHT22;61938;48.652;9.292;2023-05-20T10:05:02;21.90;99.90
73643;DHT22;61938;48.652;9.292;2023-05-20T10:13:21;20.50;99.90
73643;DHT22;61938;48.652;9.292;2023-05-20T10:18:35;20.90;99.90
73643;DHT22;61938;48.652;9.292;2023-05-20T10:21:01;21.00;99.90
73643;DHT22;61938;48.652;9.292;2023-05-20T10:23:28;20.40;99.90
73643;DHT22;61938;48.652;9.292;2023-05-20T10:25:55;21.00;99.90
73643;DHT22;61938;48.652;9.292;2023-05-20T10:28:31;21.50;99.90
73643;DHT22;61938;48.652;9.292;2023-05-20T10:30:58;21.70;99.90
73643;DHT22;61938;48.652;9.292;2023-05-20T10:33:25;21.70;99.90
73643;DHT22;61938;48.652;9.292;2023-05-20T10:35:52;21.50;99.90
73643;DHT22;61938;48.652;9.292;2023-05-20T10:38:18;21.30;99.90
73643;DHT22;61938;48.652;9.292;2023-05-20T10:40:45;21.90;99.90
73643;DHT22;61938;48.652;9.292;2023-05-20T10:43:16;22.40;99.90
73643;DHT22;61938;48.652;9.292;2023-05-20T10:45:51;23.00;99.90
73643;DHT22;61938;48.652;9.292;2023-05-20T10:50:53;23.70;99.90
73643;DHT22;61938;48.652;9.292;2023-05-20T10:53:21;23.70;99.90
73643;DHT22;61938;48.652;9.292;2023-05-20T10:55:49;23.20;99.90
73643;DHT22;61938;48.652;9.292;2023-05-20T10:58:22;23.40;99.90
73643;DHT22;61938;48.652;9.292;2023-05-20T11:00:52;23.00;99.90
73643;DHT22;61938;48.652;9.292;2023-05-20T11:03:21;22.90;99.90
73643;DHT22;61938;48.652;9.292;2023-05-20T11:05:47;22.70;99.90
73643;DHT22;61938;48.652;9.292;2023-05-20T11:08:13;22.50;99.90
73643;DHT22;61938;48.652;9.292;2023-05-20T11:10:40;22.30;99.90
73643;DHT22;61938;48.652;9.292;2023-05-20T11:13:06;22.60;99.90
73643;DHT22;61938;48.652;9.292;2023-05-20T11:15:34;22.60;99.90
73643;DHT22;61938;48.652;9.292;2023-05-20T11:18:02;22.60;99.90
73643;DHT22;61938;48.652;9.292;2023-05-20T11:20:28;22.80;99.90
73643;DHT22;61938;48.652;9.292;2023-05-20T11:22:54;23.00;99.90
73643;DHT22;61938;48.652;9.292;2023-05-20T11:25:20;23.30;99.90
73643;DHT22;61938;48.652;9.292;2023-05-20T11:27:48;23.70;99.90
73643;DHT22;61938;48.652;9.292;2023-05-20T11:30:15;24.00;99.90
73643;DHT22;61938;48.652;9.292;2023-05-20T11:32:42;24.60;99.90
73643;DHT22;61938;48.652;9.292;2023-05-20T11:35:20;24.80;99.90
73643;DHT22;61938;48.652;9.292;2023-05-20T11:37:56;24.80;99.90
73643;DHT22;61938;48.652;9.292;2023-05-20T11:40:26;24.70;99.90
73643;DHT22;61938;48.652;9.292;2023-05-20T11:42:53;24.50;99.90
73643;DHT22;61938;48.652;9.292;2023-05-20T11:45:19;24.20;99.90
73643;DHT22;61938;48.652;9.292;2023-05-20T11:47:44;24.40;99.90
73643;DHT22;61938;48.652;9.292;2023-05-20T11:50:16;24.20;99.90
73643;DHT22;61938;48.652;9.292;2023-05-20T11:52:42;24.40;99.90
73643;DHT22;61938;48.652;9.292;2023-05-20T11:55:13;24.30;99.90
73643;DHT22;61938;48.652;9.292;2023-05-20T11:57:39;24.10;99.90
73643;DHT22;61938;48.652;9.292;2023-05-20T12:00:06;23.50;99.90
73643;DHT22;61938;48.652;9.292;2023-05-20T12:02:34;22.90;99.90
73643;DHT22;61938;48.652;9.292;2023-05-20T12:05:00;22.80;99.90
73643;DHT22;61938;48.652;9.292;2023-05-20T12:07:26;22.50;99.90
73643;DHT22;61938;48.652;9.292;2023-05-20T12:09:52;22.50;99.90
73643;DHT22;61938;48.652;9.292;2023-05-20T12:12:18;22.50;99.90
73643;DHT22;61938;48.652;9.292;2023-05-20T12:14:44;22.50;99.90
73643;DHT22;61938;48.652;9.292;2023-05-20T12:17:09;22.70;99.90
73643;DHT22;61938;48.652;9.292;2023-05-20T12:19:35;23.10;99.90
73643;DHT22;61938;48.652;9.292;2023-05-20T12:22:01;23.40;99.90
73643;DHT22;61938;48.652;9.292;2023-05-20T12:24:27;23.70;99.90
73643;DHT22;61938;48.652;9.292;2023-05-20T12:26:52;23.60;99.90
73643;DHT22;61938;48.652;9.292;2023-05-20T12:29:17;23.30;99.90
73643;DHT22;61938;48.652;9.292;2023-05-20T12:31:43;23.20;99.90
73643;DHT22;61938;48.652;9.292;2023-05-20T12:34:08;22.90;99.90
73643;DHT22;61938;48.652;9.292;2023-05-20T12:36:34;23.00;99.90
73643;DHT22;61938;48.652;9.292;2023-05-20T12:38:59;23.20;99.90
73643;DHT22;61938;48.652;9.292;2023-05-20T12:41:25;23.50;99.90
73643;DHT22;61938;48.652;9.292;2023-05-20T12:43:50;24.10;99.90
73643;DHT22;61938;48.652;9.292;2023-05-20T12:46:17;24.10;99.90
73643;DHT22;61938;48.652;9.292;2023-05-20T12:48:43;23.90;99.90
73643;DHT22;61938;48.652;9.292;2023-05-20T12:51:08;23.70;99.90
73643;DHT22;61938;48.652;9.292;2023-05-20T12:53:33;23.90;99.90
73643;DHT22;61938;48.652;9.292;2023-05-20T12:55:59;24.00;99.90
73643;DHT22;61938;48.652;9.292;2023-05-20T12:58:25;23.80;99.90
73643;DHT22;61938;48.652;9.292;2023-05-20T13:00:50;24.00;99.90
73643;DHT22;61938;48.652;9.292;2023-05-20T13:03:16;24.10;99.90
73643;DHT22;61938;48.652;9.292;2023-05-20T13:05:41;24.10;99.90
73643;DHT22;61938;48.652;9.292;2023-05-20T13:08:07;24.50;99.90
73643;DHT22;61938;48.652;9.292;2023-05-20T13:10:34;24.20;99.90
73643;DHT22;61938;48.652;9.292;2023-05-20T13:13:00;23.70;99.90
73643;DHT22;61938;48.652;9.292;2023-05-20T13:15:25;23.50;99.90
73643;DHT22;61938;48.652;9.292;2023-05-20T13:17:51;23.30;99.90
73643;DHT22;61938;48.652;9.292;2023-05-20T13:20:16;23.20;99.90
73643;DHT22;61938;48.652;9.292;2023-05-20T13:22:42;23.00;99.90
73643;DHT22;61938;48.652;9.292;2023-05-20T13:25:07;23.00;99.90
73643;DHT22;61938;48.652;9.292;2023-05-20T13:27:33;22.70;99.90
73643;DHT22;61938;48.652;9.292;2023-05-20T13:29:59;22.70;99.90
73643;DHT22;61938;48.652;9.292;2023-05-20T13:32:26;22.80;99.90
73643;DHT22;61938;48.652;9.292;2023-05-20T13:34:51;22.80;99.90
73643;DHT22;61938;48.652;9.292;2023-05-20T13:37:17;22.90;99.90
73643;DHT22;61938;48.652;9.292;2023-05-20T13:39:42;22.90;99.90
73643;DHT22;61938;48.652;9.292;2023-05-20T13:42:08;23.20;99.90
73643;DHT22;61938;48.652;9.292;2023-05-20T13:44:33;23.30;99.90
73643;DHT22;61938;48.652;9.292;2023-05-20T13:46:59;23.30;99.90
73643;DHT22;61938;48.652;9.292;2023-05-20T13:49:25;23.30;99.90
73643;DHT22;61938;48.652;9.292;2023-05-20T13:51:50;23.20;99.90
73643;DHT22;61938;48.652;9.292;2023-05-20T13:54:16;23.20;99.90
73643;DHT22;61938;48.652;9.292;2023-05-20T13:56:42;23.50;99.90
73643;DHT22;61938;48.652;9.292;2023-05-20T13:59:08;23.70;99.90
73643;DHT22;61938;48.652;9.292;2023-05-20T14:01:33;23.80;99.90
73643;DHT22;61938;48.652;9.292;2023-05-20T14:03:59;23.70;99.90
73643;DHT22;61938;48.652;9.292;2023-05-20T14:06:25;23.80;99.90
73643;DHT22;61938;48.652;9.292;2023-05-20T14:08:53;23.70;99.90
73643;DHT22;61938;48.652;9.292;2023-05-20T14:11:19;23.60;99.90
73643;DHT22;61938;48.652;9.292;2023-05-20T14:13:45;23.80;99.90
73643;DHT22;61938;48.652;9.292;2023-05-20T14:16:11;23.70;99.90
73643;DHT22;61938;48.652;9.292;2023-05-20T14:18:36;23.70;99.90
73643;DHT22;61938;48.652;9.292;2023-05-20T14:21:02;23.60;99.90
73643;DHT22;61938;48.652;9.292;2023-05-20T14:23:27;23.40;99.90
73643;DHT22;61938;48.652;9.292;2023-05-20T14:25:53;23.30;99.90
73643;DHT22;61938;48.652;9.292;2023-05-20T14:28:18;23.00;99.90
73643;DHT22;61938;48.652;9.292;2023-05-20T14:30:44;23.00;99.90
73643;DHT22;61938;48.652;9.292;2023-05-20T14:33:09;23.00;99.90
73643;DHT22;61938;48.652;9.292;2023-05-20T14:35:35;23.10;99.90
73643;DHT22;61938;48.652;9.292;2023-05-20T14:38:00;23.20;99.90
73643;DHT22;61938;48.652;9.292;2023-05-20T14:40:26;23.20;99.90
73643;DHT22;61938;48.652;9.292;2023-05-20T14:42:52;23.10;99.90
73643;DHT22;61938;48.652;9.292;2023-05-20T14:45:18;23.20;99.90
73643;DHT22;61938;48.652;9.292;2023-05-20T14:47:43;23.20;99.90
73643;DHT22;61938;48.652;9.292;2023-05-20T14:50:09;23.30;99.90
73643;DHT22;61938;48.652;9.292;2023-05-20T14:52:35;23.10;99.90
73643;DHT22;61938;48.652;9.292;2023-05-20T14:55:01;23.10;99.90
73643;DHT22;61938;48.652;9.292;2023-05-20T14:57:26;23.00;99.90
73643;DHT22;61938;48.652;9.292;2023-05-20T14:59:51;22.90;99.90
73643;DHT22;61938;48.652;9.292;2023-05-20T15:02:18;22.80;99.90
73643;DHT22;61938;48.652;9.292;2023-05-20T15:04:44;22.90;99.90
73643;DHT22;61938;48.652;9.292;2023-05-20T15:07:12;22.90;99.90
73643;DHT22;61938;48.652;9.292;2023-05-20T15:09:38;22.90;99.90
73643;DHT22;61938;48.652;9.292;2023-05-20T15:12:03;22.90;99.90
73643;DHT22;61938;48.652;9.292;2023-05-20T15:14:29;22.90;99.90
73643;DHT22;61938;48.652;9.292;2023-05-20T15:16:54;22.80;99.90
73643;DHT22;61938;48.652;9.292;2023-05-20T15:19:20;22.90;99.90
73643;DHT22;61938;48.652;9.292;2023-05-20T15:21:46;22.90;99.90
73643;DHT22;61938;48.652;9.292;2023-05-20T15:24:11;22.80;99.90
73643;DHT22;61938;48.652;9.292;2023-05-20T15:26:37;22.80;99.90
73643;DHT22;61938;48.652;9.292;2023-05-20T15:29:03;22.90;99.90
73643;DHT22;61938;48.652;9.292;2023-05-20T15:31:28;22.90;99.90
73643;DHT22;61938;48.652;9.292;2023-05-20T15:33:54;23.00;99.90
73643;DHT22;61938;48.652;9.292;2023-05-20T15:36:20;23.00;99.90